Terminal Aerodrome Forecast
Issued by NWS Binghamton, NY

Home | Current Version | Previous Version | Text Only | Print | Product List | Glossary On
Versions: 1 2 3 4 5 6 7 8 9 10 11 12
072
FTUS41 KBGM 240522
TAFSYR
TAF
KSYR 240522Z 2406/2506 16005KT P6SM OVC250
     FM242300 15008KT P6SM OVC080
     FM250400 11008KT P6SM -RA OVC040=

USA.gov is the U.S. government's official web portal to all federal, state and local government web resources and services.